createdAt,value
2022-08-03T00:01:38.179Z,16.86
2022-08-03T00:04:07.820Z,16.85
2022-08-03T00:06:37.165Z,16.88
2022-08-03T00:09:06.846Z,16.90
2022-08-03T00:11:33.367Z,16.92
2022-08-03T00:13:59.541Z,16.95
2022-08-03T00:16:26.538Z,16.97
2022-08-03T00:18:53.154Z,16.93
2022-08-03T00:21:19.348Z,16.91
2022-08-03T00:23:51.301Z,16.89
2022-08-03T00:26:18.189Z,16.84
2022-08-03T00:28:44.374Z,16.80
2022-08-03T00:31:13.500Z,16.75
2022-08-03T00:33:58.229Z,16.71
2022-08-03T00:36:26.134Z,16.66
2022-08-03T00:38:52.323Z,16.64
2022-08-03T00:41:18.467Z,16.61
2022-08-03T00:43:45.059Z,16.58
2022-08-03T00:46:11.213Z,16.53
2022-08-03T00:48:37.408Z,16.49
2022-08-03T00:51:03.716Z,16.47
2022-08-03T00:53:30.366Z,16.41
2022-08-03T00:55:56.562Z,16.40
2022-08-03T00:58:24.250Z,16.36
2022-08-03T01:00:50.484Z,16.36
2022-08-03T01:03:16.841Z,16.38
2022-08-03T01:06:38.521Z,16.39
2022-08-03T01:09:23.023Z,16.44
2022-08-03T01:12:15.894Z,16.52
2022-08-03T01:14:49.302Z,16.61
2022-08-03T01:17:23.304Z,16.67
2022-08-03T01:19:56.354Z,16.71
2022-08-03T01:23:00.760Z,16.78
2022-08-03T01:26:00.898Z,16.85
2022-08-03T01:28:54.552Z,16.92
2022-08-03T01:31:26.140Z,17.01
2022-08-03T01:33:58.978Z,17.05
2022-08-03T01:36:32.422Z,17.10
2022-08-03T01:39:01.872Z,17.12
2022-08-03T01:41:35.285Z,17.15
2022-08-03T01:44:28.331Z,17.18
2022-08-03T01:46:51.447Z,17.24
2022-08-03T01:49:18.407Z,17.28
2022-08-03T01:52:03.301Z,17.34
2022-08-03T01:54:32.845Z,17.38
2022-08-03T01:56:59.803Z,17.40
2022-08-03T01:59:28.001Z,17.42
2022-08-03T02:02:27.740Z,17.47
2022-08-03T02:04:43.953Z,17.50
2022-08-03T02:07:10.589Z,17.51
2022-08-03T02:09:44.398Z,17.56
2022-08-03T02:12:12.330Z,17.62
2022-08-03T02:14:40.990Z,17.64
2022-08-03T02:17:07.942Z,17.67
2022-08-03T02:19:35.937Z,17.70
2022-08-03T02:22:04.939Z,17.75
2022-08-03T02:24:32.503Z,17.79
2022-08-03T02:27:00.107Z,17.83
2022-08-03T02:29:39.689Z,17.86
2022-08-03T02:32:14.390Z,17.88
2022-08-03T02:34:46.209Z,17.90
2022-08-03T02:37:13.596Z,17.92
2022-08-03T02:39:41.089Z,17.92
2022-08-03T02:42:12.698Z,17.94
2022-08-03T02:44:40.446Z,17.95
2022-08-03T02:47:10.975Z,17.92
2022-08-03T02:49:50.849Z,17.91
2022-08-03T02:52:21.642Z,17.91
2022-08-03T02:54:51.261Z,17.90
2022-08-03T02:57:20.023Z,17.90
2022-08-03T02:59:47.104Z,17.92
2022-08-03T03:02:15.879Z,17.91
2022-08-03T03:04:58.829Z,17.93
2022-08-03T03:07:31.389Z,17.93
2022-08-03T03:10:07.195Z,17.91
2022-08-03T03:12:33.693Z,17.92
2022-08-03T03:14:59.855Z,17.93
2022-08-03T03:17:26.976Z,17.93
2022-08-03T03:19:54.287Z,17.94
2022-08-03T03:22:22.584Z,17.96
2022-08-03T03:24:51.813Z,17.99
2022-08-03T03:27:18.383Z,18.03
2022-08-03T03:29:45.006Z,18.10
2022-08-03T03:32:11.162Z,18.10
2022-08-03T03:34:37.649Z,18.13
2022-08-03T03:37:04.015Z,18.14
2022-08-03T03:39:30.212Z,18.18
2022-08-03T03:41:57.458Z,18.18
2022-08-03T03:44:27.977Z,18.17
2022-08-03T03:46:54.142Z,18.16
2022-08-03T03:49:21.259Z,18.17
2022-08-03T03:51:47.487Z,18.17
2022-08-03T03:54:13.682Z,18.18
2022-08-03T03:56:39.943Z,18.17
2022-08-03T03:59:06.321Z,18.12
2022-08-03T04:01:32.650Z,18.13
2022-08-03T04:04:18.771Z,18.15
2022-08-03T04:07:03.994Z,18.11
2022-08-03T04:09:49.766Z,18.09
2022-08-03T04:12:17.457Z,18.09
2022-08-03T04:14:44.758Z,18.10
2022-08-03T04:17:13.693Z,18.07
2022-08-03T04:19:47.848Z,18.06
2022-08-03T04:22:18.816Z,18.05
2022-08-03T04:24:48.842Z,18.02
2022-08-03T04:27:19.446Z,17.97
2022-08-03T04:29:49.374Z,17.92
2022-08-03T04:32:17.488Z,17.92
2022-08-03T04:34:44.366Z,17.88
2022-08-03T04:37:13.042Z,17.87
2022-08-03T04:39:42.738Z,17.86
2022-08-03T04:42:13.174Z,17.85
2022-08-03T04:44:43.101Z,17.85
2022-08-03T04:47:09.249Z,17.91
2022-08-03T04:49:37.994Z,17.96
2022-08-03T04:52:07.321Z,18.00
2022-08-03T04:54:45.830Z,18.06
2022-08-03T04:57:22.348Z,18.10
2022-08-03T04:59:56.640Z,18.17
2022-08-03T05:02:27.353Z,18.20
2022-08-03T05:04:53.532Z,18.26
2022-08-03T05:07:24.873Z,18.31
2022-08-03T05:09:52.808Z,18.37
2022-08-03T05:12:23.932Z,18.43
2022-08-03T05:14:50.089Z,18.49
2022-08-03T05:17:16.269Z,18.58
2022-08-03T05:19:42.427Z,18.66
2022-08-03T05:22:08.583Z,18.74
2022-08-03T05:24:35.160Z,18.83
2022-08-03T05:27:01.302Z,18.92
2022-08-03T05:29:27.502Z,19.02
2022-08-03T05:31:53.663Z,19.07
2022-08-03T05:34:19.865Z,19.15
2022-08-03T05:36:46.023Z,19.23
2022-08-03T05:39:12.180Z,19.33
2022-08-03T05:41:38.313Z,19.42
2022-08-03T05:44:04.809Z,19.51
2022-08-03T05:46:30.964Z,19.61
2022-08-03T05:48:57.271Z,19.68
2022-08-03T05:51:23.451Z,19.79
2022-08-03T05:53:49.620Z,19.88
2022-08-03T05:56:16.809Z,19.96
2022-08-03T05:58:47.833Z,20.08
2022-08-03T06:01:15.596Z,20.19
2022-08-03T06:03:41.835Z,20.29
2022-08-03T06:06:08.440Z,20.40
2022-08-03T06:08:35.513Z,20.47
2022-08-03T06:11:01.658Z,20.57
2022-08-03T06:13:27.916Z,20.68
2022-08-03T06:15:54.146Z,20.78
2022-08-03T06:18:20.351Z,20.88
2022-08-03T06:20:47.169Z,20.99
2022-08-03T06:23:16.244Z,21.10
2022-08-03T06:25:44.045Z,21.22
2022-08-03T06:28:19.061Z,21.32
2022-08-03T06:30:55.164Z,21.44
2022-08-03T06:33:21.318Z,21.53
2022-08-03T06:35:47.503Z,21.63
2022-08-03T06:38:13.655Z,21.76
2022-08-03T06:40:42.627Z,21.87
2022-08-03T06:43:12.683Z,21.98
2022-08-03T06:45:40.307Z,22.08
2022-08-03T06:48:09.177Z,22.22
2022-08-03T06:50:37.223Z,22.32
2022-08-03T06:53:04.964Z,22.41
2022-08-03T06:55:32.325Z,22.52
2022-08-03T06:58:00.189Z,22.60
2022-08-03T07:00:30.897Z,22.70
2022-08-03T07:02:58.387Z,22.78
2022-08-03T07:05:24.887Z,22.87
2022-08-03T07:07:51.088Z,22.98
2022-08-03T07:10:17.252Z,23.07
2022-08-03T07:12:52.799Z,23.18
2022-08-03T07:15:54.161Z,23.27
2022-08-03T07:18:09.471Z,23.38
2022-08-03T07:20:35.668Z,23.50
2022-08-03T07:23:01.820Z,23.58
2022-08-03T07:25:27.996Z,23.63
2022-08-03T07:27:54.133Z,23.82
2022-08-03T07:30:22.549Z,24.01
2022-08-03T07:32:50.228Z,24.14
2022-08-03T07:35:22.753Z,24.16
2022-08-03T07:37:54.205Z,24.25
2022-08-03T07:40:21.225Z,24.32
2022-08-03T07:42:47.447Z,24.44
2022-08-03T07:45:18.181Z,24.51
2022-08-03T07:47:44.325Z,24.66
2022-08-03T07:50:20.015Z,24.75
2022-08-03T07:52:53.202Z,24.79
2022-08-03T07:55:21.214Z,24.86
2022-08-03T07:57:48.215Z,24.96
2022-08-03T08:00:19.283Z,25.03
2022-08-03T08:02:45.930Z,25.15
2022-08-03T08:05:12.702Z,25.22
2022-08-03T08:07:39.690Z,25.37
2022-08-03T08:10:07.880Z,25.35
2022-08-03T08:12:34.023Z,25.42
2022-08-03T08:15:00.217Z,25.50
2022-08-03T08:17:26.390Z,25.57
2022-08-03T08:19:53.293Z,25.65
2022-08-03T08:22:28.055Z,25.70
2022-08-03T08:24:57.001Z,25.79
2022-08-03T08:27:23.213Z,25.89
2022-08-03T08:29:54.222Z,25.95
2022-08-03T08:32:22.569Z,26.01
2022-08-03T08:34:48.735Z,26.15
2022-08-03T08:37:15.091Z,26.17
2022-08-03T08:39:41.240Z,26.23
2022-08-03T08:42:07.391Z,26.32
2022-08-03T08:44:33.578Z,26.36
2022-08-03T08:47:03.207Z,26.46
2022-08-03T08:49:32.901Z,26.61
2022-08-03T08:52:01.635Z,26.68
2022-08-03T08:54:29.673Z,26.74
2022-08-03T08:56:57.371Z,26.74
2022-08-03T08:59:25.168Z,26.73
2022-08-03T09:01:51.498Z,26.82
2022-08-03T09:04:17.912Z,26.90
2022-08-03T09:06:58.663Z,27.06
2022-08-03T09:10:10.648Z,27.03
2022-08-03T09:12:40.864Z,27.09
2022-08-03T09:15:26.056Z,27.22
2022-08-03T09:17:56.735Z,27.26
2022-08-03T09:20:24.674Z,27.29
2022-08-03T09:23:51.583Z,27.37
2022-08-03T09:26:01.814Z,27.34
2022-08-03T09:28:56.282Z,27.30
2022-08-03T09:31:33.150Z,27.38
2022-08-03T09:34:02.671Z,27.45
2022-08-03T09:36:46.503Z,27.56
2022-08-03T09:39:15.236Z,27.60
2022-08-03T09:41:44.500Z,27.65
2022-08-03T09:44:24.281Z,27.66
2022-08-03T09:46:55.293Z,27.71
2022-08-03T09:49:21.579Z,27.75
2022-08-03T09:52:32.257Z,27.91
2022-08-03T09:54:34.638Z,27.90
2022-08-03T09:57:01.269Z,27.92
2022-08-03T09:59:29.743Z,27.98
2022-08-03T10:01:57.600Z,28.02
2022-08-03T10:04:24.526Z,28.05
2022-08-03T10:07:10.840Z,28.06
2022-08-03T10:09:38.132Z,28.17
2022-08-03T10:12:12.534Z,28.21
2022-08-03T10:14:39.855Z,28.17
2022-08-03T10:17:06.155Z,28.25
2022-08-03T10:19:33.384Z,28.24
2022-08-03T10:22:10.459Z,28.31
2022-08-03T10:24:39.094Z,28.39
2022-08-03T10:27:09.899Z,28.44
2022-08-03T10:29:42.790Z,28.50
2022-08-03T10:32:32.998Z,28.47
2022-08-03T10:35:12.392Z,28.55
2022-08-03T10:38:03.287Z,28.59
2022-08-03T10:40:49.366Z,28.67
2022-08-03T10:43:23.095Z,28.79
2022-08-03T10:45:49.760Z,28.86
2022-08-03T10:48:17.631Z,28.93
2022-08-03T10:50:44.435Z,29.02
2022-08-03T10:53:10.698Z,29.11
2022-08-03T10:56:01.771Z,29.17
2022-08-03T10:58:37.047Z,29.27
2022-08-03T11:01:08.342Z,29.42
2022-08-03T11:03:55.185Z,29.59
2022-08-03T11:06:24.679Z,29.58
2022-08-03T11:09:10.739Z,29.55
2022-08-03T11:11:41.988Z,29.49
2022-08-03T11:14:11.434Z,29.61
2022-08-03T11:16:45.261Z,29.61
2022-08-03T11:19:13.708Z,29.62
2022-08-03T11:21:51.840Z,29.63
2022-08-03T11:24:36.517Z,29.69
2022-08-03T11:27:14.958Z,29.78
2022-08-03T11:29:57.451Z,29.79
2022-08-03T11:32:48.306Z,29.86
2022-08-03T11:35:33.812Z,29.91
2022-08-03T11:38:07.210Z,30.00
2022-08-03T11:40:34.787Z,30.10
2022-08-03T11:43:01.340Z,30.16
2022-08-03T11:45:28.144Z,30.24
2022-08-03T11:47:55.720Z,30.35
2022-08-03T11:50:22.593Z,30.39
2022-08-03T11:52:49.819Z,30.44
2022-08-03T15:12:16.943Z,36.54
2022-08-03T15:14:43.158Z,36.67
2022-08-03T15:17:09.614Z,36.95
2022-08-03T15:20:00.218Z,37.14
2022-08-03T15:22:25.004Z,37.38
2022-08-03T15:25:00.612Z,37.74
2022-08-03T15:27:26.839Z,37.47
2022-08-03T15:30:06.813Z,37.77
2022-08-03T15:32:36.566Z,38.39
2022-08-03T15:35:02.787Z,38.44
2022-08-03T15:37:31.612Z,38.61
2022-08-03T15:39:59.009Z,38.31
2022-08-03T15:42:26.761Z,38.07
2022-08-03T15:44:53.940Z,38.06
2022-08-03T15:47:21.084Z,37.88
2022-08-03T15:49:47.531Z,37.95
2022-08-03T15:52:13.692Z,38.60
2022-08-03T15:54:39.883Z,38.82
2022-08-03T15:57:06.138Z,39.15
2022-08-03T15:59:32.331Z,39.43
2022-08-03T16:01:58.715Z,39.46
2022-08-03T16:04:27.524Z,39.69
2022-08-03T16:06:53.709Z,39.01
2022-08-03T16:09:24.039Z,39.30
2022-08-03T16:12:06.233Z,39.28
2022-08-03T16:14:51.962Z,39.61
2022-08-03T16:17:19.047Z,39.55
2022-08-03T16:19:45.380Z,39.67
2022-08-03T16:22:11.528Z,39.69
2022-08-03T16:24:40.474Z,39.32
2022-08-03T16:27:06.769Z,39.21
2022-08-03T16:29:43.971Z,39.55
2022-08-03T16:32:10.903Z,39.89
2022-08-03T16:34:38.535Z,39.63
2022-08-03T16:37:35.317Z,39.26
2022-08-03T16:39:51.769Z,38.64
2022-08-03T16:42:17.922Z,38.25
2022-08-03T16:44:44.165Z,37.88
2022-08-03T16:47:10.322Z,37.60
2022-08-03T16:49:55.396Z,37.07
2022-08-03T16:52:22.770Z,37.09
2022-08-03T16:54:52.718Z,37.37
2022-08-03T16:57:56.280Z,37.75
2022-08-03T17:00:08.701Z,37.76
2022-08-03T17:02:36.214Z,37.74
2022-08-03T17:05:03.039Z,38.44
2022-08-03T17:07:30.392Z,38.20
2022-08-03T17:09:57.354Z,38.18
2022-08-03T17:12:23.511Z,38.61
2022-08-03T17:14:53.579Z,38.76
2022-08-03T17:17:30.059Z,38.93
2022-08-03T17:20:09.749Z,38.61
2022-08-03T17:22:39.276Z,38.88
2022-08-03T17:25:09.607Z,38.97
2022-08-03T17:28:50.237Z,39.04
2022-08-03T17:30:57.165Z,39.09
2022-08-03T17:33:27.059Z,38.78
2022-08-03T17:36:01.878Z,38.70
2022-08-03T17:38:31.908Z,38.20
2022-08-03T17:41:00.986Z,37.55
2022-08-03T17:44:12.800Z,36.78
2022-08-03T17:46:26.658Z,36.18
2022-08-03T17:48:54.167Z,35.60
2022-08-03T17:51:33.593Z,35.01
2022-08-03T17:54:20.019Z,34.50
2022-08-03T17:57:22.062Z,34.08
2022-08-03T18:00:32.828Z,33.69
2022-08-03T18:03:25.339Z,33.23
2022-08-03T18:08:51.044Z,32.57
2022-08-03T18:11:22.902Z,32.29
2022-08-03T18:14:16.048Z,32.02
2022-08-03T18:16:56.477Z,31.79
2022-08-03T18:20:02.734Z,31.56
2022-08-03T18:22:11.313Z,31.29
2022-08-03T18:24:38.424Z,31.07
2022-08-03T18:27:06.562Z,30.81
2022-08-03T18:29:33.792Z,30.53
2022-08-03T18:32:06.805Z,30.28
2022-08-03T18:34:37.228Z,30.01
2022-08-03T18:37:25.165Z,29.72
2022-08-03T18:39:57.864Z,29.44
2022-08-03T18:42:26.326Z,29.18
2022-08-03T18:44:56.442Z,28.92
2022-08-03T18:47:53.140Z,28.64
2022-08-03T18:50:30.824Z,28.36
2022-08-03T18:53:16.247Z,28.11
2022-08-03T18:56:02.228Z,27.84
2022-08-03T18:58:39.737Z,27.60
2022-08-03T19:01:58.128Z,27.35
2022-08-03T19:04:09.570Z,27.11
2022-08-03T19:06:42.170Z,26.91
2022-08-03T19:09:31.930Z,26.71
2022-08-03T19:12:12.431Z,26.55
2022-08-03T19:15:10.534Z,26.36
2022-08-03T19:17:53.713Z,26.19
2022-08-03T19:20:30.840Z,26.02
2022-08-03T19:22:59.339Z,25.85
2022-08-03T19:25:35.036Z,25.72
2022-08-03T19:28:03.871Z,25.57
2022-08-03T19:30:46.478Z,25.42
2022-08-03T19:33:19.785Z,25.28
2022-08-03T19:35:55.640Z,25.19
2022-08-03T19:38:29.313Z,25.04
2022-08-03T19:41:08.578Z,24.94
2022-08-03T19:43:49.368Z,24.82
2022-08-03T19:46:22.396Z,24.70
2022-08-03T19:48:59.287Z,24.57
2022-08-03T19:51:59.048Z,24.46
2022-08-03T19:54:29.339Z,24.35
2022-08-03T19:56:56.447Z,24.25
2022-08-03T19:59:23.585Z,24.14
2022-08-03T20:01:52.972Z,24.05
2022-08-03T20:04:20.969Z,23.96
2022-08-03T20:06:49.769Z,23.87
2022-08-03T20:09:16.558Z,23.78
2022-08-03T20:11:43.739Z,23.69
2022-08-03T20:14:11.813Z,23.60
2022-08-03T20:16:47.499Z,23.55
2022-08-03T20:19:14.754Z,23.48
2022-08-03T20:21:44.994Z,23.39
2022-08-03T20:24:25.185Z,23.33
2022-08-03T20:26:53.522Z,23.28
2022-08-03T20:30:05.429Z,23.21
2022-08-03T20:32:19.075Z,23.11
2022-08-03T20:34:50.695Z,23.04
2022-08-03T20:37:19.374Z,22.95
2022-08-03T20:39:48.329Z,22.88
2022-08-03T20:42:21.460Z,22.79
2022-08-03T20:44:54.246Z,22.71
2022-08-03T20:47:33.856Z,22.62
2022-08-03T20:50:02.785Z,22.52
2022-08-03T20:52:31.559Z,22.45
2022-08-03T20:54:59.303Z,22.37
2022-08-03T20:57:28.693Z,22.30
2022-08-03T21:00:00.645Z,22.23
2022-08-03T21:02:29.520Z,22.16
2022-08-03T21:04:57.932Z,22.12
2022-08-03T21:07:24.402Z,22.06
2022-08-03T21:09:53.106Z,22.01
2022-08-03T21:12:41.683Z,21.95
2022-08-03T21:12:56.699Z,32.90
2022-08-03T21:15:09.664Z,21.90
2022-08-03T21:17:57.950Z,21.84
2022-08-03T21:20:34.572Z,21.81
2022-08-03T21:23:00.952Z,21.88
2022-08-03T21:25:32.691Z,21.92
2022-08-03T21:28:00.710Z,21.91
2022-08-03T21:30:29.762Z,21.87
2022-08-03T21:32:57.960Z,21.84
2022-08-03T21:35:25.259Z,21.80
2022-08-03T21:38:20.840Z,21.72
2022-08-03T21:40:57.064Z,21.62
2022-08-03T21:43:23.308Z,21.55
2022-08-03T21:46:01.943Z,21.49
2022-08-03T21:48:35.162Z,21.43
2022-08-03T21:51:02.652Z,21.39
2022-08-03T21:54:00.289Z,21.37
2022-08-03T21:56:20.523Z,21.33
2022-08-03T21:58:51.406Z,21.30
2022-08-03T22:01:21.154Z,21.26
2022-08-03T22:03:53.103Z,21.26
2022-08-03T22:06:20.742Z,21.23
2022-08-03T22:08:50.102Z,21.21
2022-08-03T22:11:16.620Z,21.18
2022-08-03T22:13:44.429Z,21.16
2022-08-03T22:16:10.979Z,21.15
2022-08-03T22:18:41.568Z,21.12
2022-08-03T22:21:09.976Z,21.11
2022-08-03T22:23:42.202Z,21.11
2022-08-03T22:26:14.006Z,21.12
2022-08-03T22:28:40.444Z,21.11
2022-08-03T22:31:37.619Z,21.10
2022-08-03T22:33:53.856Z,21.10
2022-08-03T22:36:23.082Z,21.09
2022-08-03T22:38:51.542Z,21.10
2022-08-03T22:41:18.679Z,21.10
2022-08-03T22:43:44.957Z,21.10
2022-08-03T22:46:15.550Z,21.11
2022-08-03T22:48:46.534Z,21.13
2022-08-03T22:51:14.293Z,21.13
2022-08-03T22:53:40.779Z,21.12
2022-08-03T22:56:07.814Z,21.12
2022-08-03T22:58:33.971Z,21.10
2022-08-03T23:01:06.808Z,21.07
2022-08-03T23:04:00.030Z,21.06
2022-08-03T23:06:23.933Z,21.05
2022-08-03T23:08:50.497Z,21.01
2022-08-03T23:11:18.399Z,20.97
2022-08-03T23:13:48.354Z,20.95
2022-08-03T23:16:15.872Z,20.91
2022-08-03T23:18:56.046Z,20.87
2022-08-03T23:22:00.470Z,20.84
2022-08-03T23:24:17.736Z,20.82
2022-08-03T23:26:55.760Z,20.82
2022-08-03T23:29:23.257Z,20.82
2022-08-03T23:31:49.659Z,20.79
2022-08-03T23:34:36.081Z,20.78
2022-08-03T23:37:02.369Z,20.77
2022-08-03T23:39:34.896Z,20.76
2022-08-03T23:42:03.031Z,20.75
2022-08-03T23:44:30.990Z,20.74
2022-08-03T23:46:57.151Z,20.73
2022-08-03T23:49:23.302Z,20.72
2022-08-03T23:52:10.226Z,20.68
2022-08-03T23:54:57.086Z,20.67
2022-08-03T23:57:32.695Z,20.64
